Destinations Heraklion International Nikos Kazantzakis Airport

Heraklion International Nikos Kazantzakis Airport (LGIR / HER)

Flights to Heraklion International Nikos Kazantzakis Airport

Flight number From ETE Dispatch
SPY-2484 EGPH Edinburgh Airport 04:35
SPY-516 EHGG Groningen Airport Eelde 03:35

Flights from Heraklion International Nikos Kazantzakis Airport

Flight number To ETE Dispatch
SPY-2485 EGPH Edinburgh Airport 04:35
SPY-517 EHGG Groningen Airport Eelde
About

Heraklion International Nikos Kazantzakis Airport facts

Heraklion International Nikos Kazantzakis Airport is located in Heraklion at an elevation of 35.1 meters or 115 feet.

Currently, Speedy Airlines serves 4 flights to and from Heraklion International Nikos Kazantzakis Airport.

Detailed airport info

Route map

Weather

Current weather

METAR

METAR

Metar data retrieved Sunday, 21 July 2024 at 19:25 UTC

LGIR 211850Z 16003KT CAVOK 28/18 Q1008 NOSIG
Wind Temperature
3 kt 28c